VOTP

Details ICAO VOTP (TIR)
Name TIRUPATI
Region India
Timezone Asia/Kolkata (UTC+5.5)
Plans Departing 3
Arriving 9
Stats Elevation 350 ft / 107 m (AMSL)
Location 13.632493° 79.543254°
Runways 1
Magnetic Variation 1.119° W
Sunrise 2017-12-17 00:59:30 UTC / 2017-12-17 06:29:30 Local
Sunset 2017-12-17 12:18:55 UTC / 2017-12-17 17:48:55 Local
Advertisement - Login to hide

Runways

ID Width Length Bearing (true) Bearing (mag) Surface Threshold Offset Overrun Length
08 148 ft / 45 m 7,498 ft / 2,285 m 81.44° 82.56° Asphalt 0 ft / 0 m 195 ft / 59 m
26 148 ft / 45 m 7,498 ft / 2,285 m 261.44° 262.56° Asphalt 0 ft / 0 m 195 ft / 59 m

Map

Weather


0- 5 10 15 20 25 30 35+ Temperature / ° C

Clouds and Precipitation
Forecast for 2017-12-17 06:00 UTC. Updated an hour ago

Ground ~20,000 ft ~40,000 ft Winds

METAR

VOTP 170200Z 00000KT 1500 BR SCT015 23/21 Q1018

TAF

Not found

Frequencies

Tower 119.00 MHz TWR
Warning: Do not use this data for real-world aviation or navigation. No guarantee of current accuracy is given.